sensor_id;sensor_type;location;lat;lon;timestamp;pressure;altitude;pressure_sealevel;temperature;humidity
11077;BME280;5591;42.626;23.380;2023-08-17T00:02:16;94314.94;;;23.13;100.00
11077;BME280;5591;42.626;23.380;2023-08-17T00:04:43;94314.59;;;23.05;100.00
11077;BME280;5591;42.626;23.380;2023-08-17T00:07:10;94325.28;;;22.95;100.00
11077;BME280;5591;42.626;23.380;2023-08-17T00:09:37;94323.91;;;22.93;100.00
11077;BME280;5591;42.626;23.380;2023-08-17T00:12:04;94315.88;;;22.98;100.00
11077;BME280;5591;42.626;23.380;2023-08-17T00:14:32;94325.19;;;22.80;100.00
11077;BME280;5591;42.626;23.380;2023-08-17T00:16:59;94321.19;;;22.83;100.00
11077;BME280;5591;42.626;23.380;2023-08-17T00:19:28;94318.66;;;22.61;100.00
11077;BME280;5591;42.626;23.380;2023-08-17T00:21:55;94315.44;;;22.59;100.00
11077;BME280;5591;42.626;23.380;2023-08-17T00:24:22;94312.19;;;22.52;100.00
11077;BME280;5591;42.626;23.380;2023-08-17T00:26:49;94315.97;;;22.56;100.00
11077;BME280;5591;42.626;23.380;2023-08-17T00:29:15;94323.47;;;22.59;100.00
11077;BME280;5591;42.626;23.380;2023-08-17T00:31:44;94306.50;;;22.44;100.00
11077;BME280;5591;42.626;23.380;2023-08-17T00:34:10;94316.13;;;22.40;100.00
11077;BME280;5591;42.626;23.380;2023-08-17T00:36:37;94242.84;;;21.99;100.00
11077;BME280;5591;42.626;23.380;2023-08-17T00:39:04;94314.72;;;22.37;100.00
11077;BME280;5591;42.626;23.380;2023-08-17T00:41:31;94314.25;;;22.40;100.00
11077;BME280;5591;42.626;23.380;2023-08-17T00:43:59;94312.53;;;22.29;100.00
11077;BME280;5591;42.626;23.380;2023-08-17T00:46:26;94319.72;;;22.24;100.00
11077;BME280;5591;42.626;23.380;2023-08-17T00:48:54;94318.84;;;21.82;100.00
11077;BME280;5591;42.626;23.380;2023-08-17T00:51:22;94318.06;;;21.81;100.00
11077;BME280;5591;42.626;23.380;2023-08-17T00:53:50;94325.84;;;21.83;100.00
11077;BME280;5591;42.626;23.380;2023-08-17T00:56:17;94312.53;;;21.93;100.00
11077;BME280;5591;42.626;23.380;2023-08-17T00:58:44;94318.16;;;21.91;100.00
11077;BME280;5591;42.626;23.380;2023-08-17T01:01:11;94319.31;;;22.05;100.00
11077;BME280;5591;42.626;23.380;2023-08-17T01:03:39;94311.06;;;22.07;100.00
11077;BME280;5591;42.626;23.380;2023-08-17T01:06:08;94315.72;;;21.90;100.00
11077;BME280;5591;42.626;23.380;2023-08-17T01:08:35;94309.59;;;21.94;100.00
11077;BME280;5591;42.626;23.380;2023-08-17T01:11:12;94309.16;;;22.07;100.00
11077;BME280;5591;42.626;23.380;2023-08-17T01:13:44;94310.22;;;22.01;100.00
11077;BME280;5591;42.626;23.380;2023-08-17T01:16:16;94338.16;;;21.89;100.00
11077;BME280;5591;42.626;23.380;2023-08-17T01:18:48;94306.81;;;21.79;100.00
11077;BME280;5591;42.626;23.380;2023-08-17T01:21:20;94311.63;;;21.77;100.00
11077;BME280;5591;42.626;23.380;2023-08-17T01:23:50;94309.09;;;21.66;100.00
11077;BME280;5591;42.626;23.380;2023-08-17T01:26:17;94305.88;;;21.64;100.00
11077;BME280;5591;42.626;23.380;2023-08-17T01:28:45;94307.50;;;21.65;100.00
11077;BME280;5591;42.626;23.380;2023-08-17T01:31:18;94304.91;;;21.75;100.00
11077;BME280;5591;42.626;23.380;2023-08-17T01:33:50;94299.47;;;21.38;100.00
11077;BME280;5591;42.626;23.380;2023-08-17T01:36:22;94299.25;;;21.45;100.00
11077;BME280;5591;42.626;23.380;2023-08-17T01:38:53;94287.94;;;21.11;100.00
11077;BME280;5591;42.626;23.380;2023-08-17T01:41:22;94290.16;;;21.41;100.00
11077;BME280;5591;42.626;23.380;2023-08-17T01:43:50;94296.88;;;21.22;100.00
11077;BME280;5591;42.626;23.380;2023-08-17T01:46:17;94307.06;;;21.25;100.00
11077;BME280;5591;42.626;23.380;2023-08-17T01:48:45;94305.56;;;21.34;100.00
11077;BME280;5591;42.626;23.380;2023-08-17T01:51:17;94304.63;;;21.23;100.00
11077;BME280;5591;42.626;23.380;2023-08-17T01:53:45;94308.41;;;21.27;100.00
11077;BME280;5591;42.626;23.380;2023-08-17T01:56:13;94261.31;;;20.90;100.00
11077;BME280;5591;42.626;23.380;2023-08-17T01:58:40;94293.66;;;21.46;100.00
11077;BME280;5591;42.626;23.380;2023-08-17T02:01:07;94218.16;;;20.98;100.00
11077;BME280;5591;42.626;23.380;2023-08-17T02:03:34;94296.78;;;21.38;100.00
11077;BME280;5591;42.626;23.380;2023-08-17T02:06:01;94298.19;;;21.19;100.00
11077;BME280;5591;42.626;23.380;2023-08-17T02:08:28;94304.28;;;21.15;100.00
11077;BME280;5591;42.626;23.380;2023-08-17T02:10:54;94301.81;;;21.08;100.00
11077;BME280;5591;42.626;23.380;2023-08-17T02:13:23;94295.34;;;21.04;100.00
11077;BME280;5591;42.626;23.380;2023-08-17T02:15:52;94295.25;;;20.94;100.00
11077;BME280;5591;42.626;23.380;2023-08-17T02:18:19;94301.00;;;20.86;100.00
11077;BME280;5591;42.626;23.380;2023-08-17T02:20:46;94294.97;;;20.96;100.00
11077;BME280;5591;42.626;23.380;2023-08-17T02:23:13;94285.25;;;20.85;100.00
11077;BME280;5591;42.626;23.380;2023-08-17T02:25:40;94287.78;;;20.96;100.00
11077;BME280;5591;42.626;23.380;2023-08-17T02:28:06;94290.78;;;21.00;100.00
11077;BME280;5591;42.626;23.380;2023-08-17T02:30:35;94294.72;;;20.97;100.00
11077;BME280;5591;42.626;23.380;2023-08-17T02:33:02;94295.69;;;21.08;100.00
11077;BME280;5591;42.626;23.380;2023-08-17T02:35:29;94297.53;;;21.07;100.00
11077;BME280;5591;42.626;23.380;2023-08-17T02:37:56;94286.28;;;21.05;100.00
11077;BME280;5591;42.626;23.380;2023-08-17T02:40:23;94290.63;;;21.11;100.00
11077;BME280;5591;42.626;23.380;2023-08-17T02:42:49;94287.75;;;21.18;100.00
11077;BME280;5591;42.626;23.380;2023-08-17T02:45:16;94286.75;;;21.24;100.00
11077;BME280;5591;42.626;23.380;2023-08-17T02:47:45;94277.25;;;21.33;100.00
11077;BME280;5591;42.626;23.380;2023-08-17T02:50:11;94283.19;;;21.40;100.00
11077;BME280;5591;42.626;23.380;2023-08-17T02:52:38;94283.75;;;21.42;100.00
11077;BME280;5591;42.626;23.380;2023-08-17T02:55:06;94270.88;;;21.39;100.00
11077;BME280;5591;42.626;23.380;2023-08-17T02:57:33;94279.41;;;21.36;100.00
11077;BME280;5591;42.626;23.380;2023-08-17T03:00:00;94285.66;;;21.20;100.00
11077;BME280;5591;42.626;23.380;2023-08-17T03:02:26;94281.09;;;21.20;100.00
11077;BME280;5591;42.626;23.380;2023-08-17T03:04:54;94275.47;;;21.17;100.00
11077;BME280;5591;42.626;23.380;2023-08-17T03:07:21;94260.78;;;20.93;100.00
11077;BME280;5591;42.626;23.380;2023-08-17T03:09:48;94276.88;;;20.98;100.00
11077;BME280;5591;42.626;23.380;2023-08-17T03:12:15;94267.50;;;20.95;100.00
11077;BME280;5591;42.626;23.380;2023-08-17T03:14:42;94280.03;;;20.95;100.00
11077;BME280;5591;42.626;23.380;2023-08-17T03:17:08;94282.75;;;21.00;100.00
11077;BME280;5591;42.626;23.380;2023-08-17T03:19:35;94283.88;;;20.82;100.00
11077;BME280;5591;42.626;23.380;2023-08-17T03:22:03;94286.06;;;20.85;100.00
11077;BME280;5591;42.626;23.380;2023-08-17T03:24:30;94285.72;;;20.82;100.00
11077;BME280;5591;42.626;23.380;2023-08-17T03:26:57;94288.03;;;20.73;100.00
11077;BME280;5591;42.626;23.380;2023-08-17T03:29:24;94288.81;;;20.74;100.00
11077;BME280;5591;42.626;23.380;2023-08-17T03:31:51;94284.59;;;20.56;100.00
11077;BME280;5591;42.626;23.380;2023-08-17T03:34:18;94290.00;;;20.61;100.00
11077;BME280;5591;42.626;23.380;2023-08-17T03:36:45;94265.97;;;20.40;100.00
11077;BME280;5591;42.626;23.380;2023-08-17T03:39:13;94284.78;;;20.50;100.00
11077;BME280;5591;42.626;23.380;2023-08-17T03:41:40;94293.00;;;20.48;100.00
11077;BME280;5591;42.626;23.380;2023-08-17T03:44:06;94292.75;;;20.29;100.00
11077;BME280;5591;42.626;23.380;2023-08-17T03:46:35;94289.56;;;20.48;100.00
11077;BME280;5591;42.626;23.380;2023-08-17T03:49:02;94301.00;;;20.48;100.00
11077;BME280;5591;42.626;23.380;2023-08-17T03:51:29;94298.06;;;20.45;100.00
11077;BME280;5591;42.626;23.380;2023-08-17T03:53:56;94298.81;;;20.62;100.00
11077;BME280;5591;42.626;23.380;2023-08-17T03:56:24;94300.19;;;20.64;100.00
11077;BME280;5591;42.626;23.380;2023-08-17T03:58:53;94304.50;;;20.70;100.00
11077;BME280;5591;42.626;23.380;2023-08-17T04:01:20;94287.38;;;20.66;100.00
11077;BME280;5591;42.626;23.380;2023-08-17T04:03:46;94299.88;;;20.82;100.00
11077;BME280;5591;42.626;23.380;2023-08-17T04:06:13;94302.06;;;20.85;100.00
11077;BME280;5591;42.626;23.380;2023-08-17T04:08:40;94305.06;;;20.89;100.00
11077;BME280;5591;42.626;23.380;2023-08-17T04:11:07;94304.00;;;20.90;100.00
11077;BME280;5591;42.626;23.380;2023-08-17T04:13:35;94305.53;;;21.07;100.00
11077;BME280;5591;42.626;23.380;2023-08-17T04:16:02;94304.38;;;21.25;100.00
11077;BME280;5591;42.626;23.380;2023-08-17T04:18:28;94305.47;;;21.29;100.00
11077;BME280;5591;42.626;23.380;2023-08-17T04:20:55;94297.03;;;21.37;100.00
11077;BME280;5591;42.626;23.380;2023-08-17T04:23:22;94308.09;;;21.45;100.00
11077;BME280;5591;42.626;23.380;2023-08-17T04:25:49;94219.03;;;21.03;100.00
11077;BME280;5591;42.626;23.380;2023-08-17T04:28:16;94302.19;;;21.70;100.00
11077;BME280;5591;42.626;23.380;2023-08-17T04:30:44;94304.69;;;21.81;100.00
11077;BME280;5591;42.626;23.380;2023-08-17T04:33:10;94293.38;;;21.69;100.00
11077;BME280;5591;42.626;23.380;2023-08-17T04:35:38;94304.25;;;21.94;100.00
11077;BME280;5591;42.626;23.380;2023-08-17T04:38:05;94292.28;;;22.02;100.00
11077;BME280;5591;42.626;23.380;2023-08-17T04:40:32;94298.97;;;22.36;100.00
11077;BME280;5591;42.626;23.380;2023-08-17T04:42:59;94296.16;;;22.52;100.00
11077;BME280;5591;42.626;23.380;2023-08-17T04:45:26;94297.28;;;22.66;100.00
11077;BME280;5591;42.626;23.380;2023-08-17T04:47:54;94303.22;;;22.78;100.00
11077;BME280;5591;42.626;23.380;2023-08-17T04:50:21;94271.06;;;22.68;100.00
11077;BME280;5591;42.626;23.380;2023-08-17T04:52:48;94299.25;;;22.86;100.00
11077;BME280;5591;42.626;23.380;2023-08-17T04:55:14;94292.66;;;23.08;99.96
11077;BME280;5591;42.626;23.380;2023-08-17T04:57:41;94289.25;;;23.22;98.09
11077;BME280;5591;42.626;23.380;2023-08-17T05:00:10;94289.00;;;23.34;98.26
11077;BME280;5591;42.626;23.380;2023-08-17T05:02:40;94290.09;;;23.53;97.50
11077;BME280;5591;42.626;23.380;2023-08-17T05:05:10;94298.16;;;23.53;96.66
11077;BME280;5591;42.626;23.380;2023-08-17T05:07:37;94292.78;;;23.48;97.50
11077;BME280;5591;42.626;23.380;2023-08-17T05:10:04;94291.16;;;23.47;97.33
11077;BME280;5591;42.626;23.380;2023-08-17T05:12:31;94290.66;;;23.65;96.86
11077;BME280;5591;42.626;23.380;2023-08-17T05:14:58;94289.59;;;23.76;96.94
11077;BME280;5591;42.626;23.380;2023-08-17T05:17:24;94292.28;;;23.76;97.44
11077;BME280;5591;42.626;23.380;2023-08-17T05:19:51;94289.63;;;23.81;97.07
11077;BME280;5591;42.626;23.380;2023-08-17T05:22:19;94226.31;;;23.75;95.96
11077;BME280;5591;42.626;23.380;2023-08-17T05:24:46;94290.16;;;24.33;94.36
11077;BME280;5591;42.626;23.380;2023-08-17T05:27:13;94289.59;;;24.46;93.30
11077;BME280;5591;42.626;23.380;2023-08-17T05:29:40;94293.59;;;24.58;91.53
11077;BME280;5591;42.626;23.380;2023-08-17T05:32:07;94297.88;;;24.74;91.44
11077;BME280;5591;42.626;23.380;2023-08-17T05:34:33;94285.16;;;24.95;90.27
11077;BME280;5591;42.626;23.380;2023-08-17T05:37:00;94288.13;;;25.03;90.46
11077;BME280;5591;42.626;23.380;2023-08-17T05:39:29;94292.41;;;24.99;89.98
11077;BME280;5591;42.626;23.380;2023-08-17T05:41:56;94295.56;;;25.21;89.84
11077;BME280;5591;42.626;23.380;2023-08-17T05:44:23;94294.13;;;25.44;88.74
11077;BME280;5591;42.626;23.380;2023-08-17T05:46:50;94300.28;;;25.49;88.79
11077;BME280;5591;42.626;23.380;2023-08-17T05:49:17;94293.59;;;25.42;88.51
11077;BME280;5591;42.626;23.380;2023-08-17T05:51:43;94297.78;;;25.63;88.38
11077;BME280;5591;42.626;23.380;2023-08-17T05:54:10;94294.63;;;25.51;86.70
11077;BME280;5591;42.626;23.380;2023-08-17T05:56:38;94292.41;;;25.63;86.31
11077;BME280;5591;42.626;23.380;2023-08-17T05:59:10;94295.78;;;25.78;85.68
11077;BME280;5591;42.626;23.380;2023-08-17T06:01:36;94302.72;;;25.84;86.68
11077;BME280;5591;42.626;23.380;2023-08-17T06:04:04;94296.06;;;25.77;86.92
11077;BME280;5591;42.626;23.380;2023-08-17T06:06:31;94307.22;;;25.98;86.82
11077;BME280;5591;42.626;23.380;2023-08-17T06:08:57;94297.63;;;26.21;86.69
11077;BME280;5591;42.626;23.380;2023-08-17T06:11:24;94304.03;;;26.30;87.63
11077;BME280;5591;42.626;23.380;2023-08-17T06:13:53;94307.47;;;26.02;91.97
11077;BME280;5591;42.626;23.380;2023-08-17T06:16:19;94308.75;;;26.09;93.36
11077;BME280;5591;42.626;23.380;2023-08-17T06:18:46;94298.03;;;26.04;94.24
11077;BME280;5591;42.626;23.380;2023-08-17T06:21:13;94327.06;;;26.41;94.32
11077;BME280;5591;42.626;23.380;2023-08-17T06:23:40;94300.09;;;26.12;96.14
11077;BME280;5591;42.626;23.380;2023-08-17T06:26:07;94306.75;;;26.58;94.01
11077;BME280;5591;42.626;23.380;2023-08-17T06:28:34;94303.09;;;26.96;92.02
11077;BME280;5591;42.626;23.380;2023-08-17T06:31:02;94295.47;;;26.56;91.46
11077;BME280;5591;42.626;23.380;2023-08-17T06:33:29;94306.94;;;26.90;89.20
11077;BME280;5591;42.626;23.380;2023-08-17T06:35:56;94287.88;;;26.82;86.80
11077;BME280;5591;42.626;23.380;2023-08-17T06:38:23;94308.13;;;27.03;86.95
11077;BME280;5591;42.626;23.380;2023-08-17T06:40:51;94310.84;;;27.26;86.01
11077;BME280;5591;42.626;23.380;2023-08-17T06:43:18;94314.41;;;27.22;85.95
11077;BME280;5591;42.626;23.380;2023-08-17T06:45:44;94313.75;;;27.06;88.51
11077;BME280;5591;42.626;23.380;2023-08-17T06:48:13;94312.81;;;27.21;89.35
11077;BME280;5591;42.626;23.380;2023-08-17T06:50:40;94295.38;;;27.55;87.98
11077;BME280;5591;42.626;23.380;2023-08-17T06:53:07;94315.63;;;27.71;89.01
11077;BME280;5591;42.626;23.380;2023-08-17T06:55:33;94307.41;;;27.63;87.67
11077;BME280;5591;42.626;23.380;2023-08-17T06:58:01;94311.53;;;27.79;87.09
11077;BME280;5591;42.626;23.380;2023-08-17T07:00:27;94308.81;;;27.97;85.64
11077;BME280;5591;42.626;23.380;2023-08-17T07:02:54;94312.88;;;28.13;83.80
11077;BME280;5591;42.626;23.380;2023-08-17T07:05:23;94307.72;;;28.49;80.91
11077;BME280;5591;42.626;23.380;2023-08-17T07:07:50;94311.56;;;28.61;77.10
11077;BME280;5591;42.626;23.380;2023-08-17T07:10:18;94309.09;;;28.78;71.56
11077;BME280;5591;42.626;23.380;2023-08-17T07:12:45;94273.31;;;28.54;73.75
11077;BME280;5591;42.626;23.380;2023-08-17T07:15:12;94309.69;;;28.75;74.25
11077;BME280;5591;42.626;23.380;2023-08-17T07:17:39;94312.28;;;28.67;74.02
11077;BME280;5591;42.626;23.380;2023-08-17T07:20:07;94311.28;;;28.76;76.29
11077;BME280;5591;42.626;23.380;2023-08-17T07:22:36;94298.28;;;28.65;75.10
11077;BME280;5591;42.626;23.380;2023-08-17T07:25:03;94306.44;;;28.91;73.92
11077;BME280;5591;42.626;23.380;2023-08-17T07:27:30;94301.34;;;29.03;72.64
11077;BME280;5591;42.626;23.380;2023-08-17T07:29:57;94304.44;;;28.97;70.27
11077;BME280;5591;42.626;23.380;2023-08-17T07:32:24;94305.91;;;28.89;66.23
11077;BME280;5591;42.626;23.380;2023-08-17T07:34:51;94233.09;;;28.39;67.21
11077;BME280;5591;42.626;23.380;2023-08-17T07:37:18;94282.13;;;28.60;70.62
11077;BME280;5591;42.626;23.380;2023-08-17T07:39:46;94296.53;;;29.00;70.00
11077;BME280;5591;42.626;23.380;2023-08-17T07:42:13;94279.91;;;29.20;67.72
11077;BME280;5591;42.626;23.380;2023-08-17T07:44:40;94231.84;;;29.17;64.56
11077;BME280;5591;42.626;23.380;2023-08-17T07:47:07;94291.53;;;29.61;64.71
11077;BME280;5591;42.626;23.380;2023-08-17T07:49:34;94297.72;;;29.62;66.78
11077;BME280;5591;42.626;23.380;2023-08-17T07:52:01;94307.91;;;29.78;67.10
11077;BME280;5591;42.626;23.380;2023-08-17T07:54:28;94300.34;;;29.67;67.60
11077;BME280;5591;42.626;23.380;2023-08-17T07:56:56;94299.78;;;29.78;67.45
11077;BME280;5591;42.626;23.380;2023-08-17T07:59:23;94268.06;;;29.70;68.27
11077;BME280;5591;42.626;23.380;2023-08-17T08:01:50;94294.22;;;29.48;69.57
11077;BME280;5591;42.626;23.380;2023-08-17T08:04:17;94296.31;;;30.00;67.12
11077;BME280;5591;42.626;23.380;2023-08-17T08:06:43;94283.22;;;29.93;67.91
11077;BME280;5591;42.626;23.380;2023-08-17T08:09:10;94298.88;;;29.83;68.08
11077;BME280;5591;42.626;23.380;2023-08-17T08:11:37;94271.88;;;29.91;67.57
11077;BME280;5591;42.626;23.380;2023-08-17T08:14:05;94285.50;;;30.00;68.29
11077;BME280;5591;42.626;23.380;2023-08-17T08:16:32;94283.13;;;30.20;66.90
11077;BME280;5591;42.626;23.380;2023-08-17T08:18:59;94276.34;;;30.31;66.02
11077;BME280;5591;42.626;23.380;2023-08-17T08:21:26;94284.22;;;30.41;64.23
11077;BME280;5591;42.626;23.380;2023-08-17T08:23:59;94292.00;;;30.34;66.36
11077;BME280;5591;42.626;23.380;2023-08-17T08:26:26;94294.53;;;30.31;65.76
11077;BME280;5591;42.626;23.380;2023-08-17T08:28:53;94280.69;;;29.61;66.21
11077;BME280;5591;42.626;23.380;2023-08-17T08:31:21;94288.28;;;29.59;67.79
11077;BME280;5591;42.626;23.380;2023-08-17T08:33:48;94289.09;;;30.31;64.83
11077;BME280;5591;42.626;23.380;2023-08-17T08:36:14;94282.16;;;30.60;60.74
11077;BME280;5591;42.626;23.380;2023-08-17T08:38:41;94282.16;;;30.16;62.98
11077;BME280;5591;42.626;23.380;2023-08-17T08:41:09;94273.53;;;30.36;62.88
11077;BME280;5591;42.626;23.380;2023-08-17T08:43:36;94280.06;;;30.35;63.10
11077;BME280;5591;42.626;23.380;2023-08-17T08:46:03;94265.81;;;30.52;65.41
11077;BME280;5591;42.626;23.380;2023-08-17T08:48:32;94272.84;;;30.83;60.82
11077;BME280;5591;42.626;23.380;2023-08-17T08:51:00;94267.72;;;31.12;59.04
11077;BME280;5591;42.626;23.380;2023-08-17T08:53:31;94256.94;;;31.29;58.60
11077;BME280;5591;42.626;23.380;2023-08-17T08:55:59;94257.44;;;31.40;59.55
11077;BME280;5591;42.626;23.380;2023-08-17T08:58:27;94201.88;;;31.37;57.89
11077;BME280;5591;42.626;23.380;2023-08-17T09:00:57;94256.53;;;31.61;57.94
11077;BME280;5591;42.626;23.380;2023-08-17T09:03:25;94256.22;;;31.62;56.97
11077;BME280;5591;42.626;23.380;2023-08-17T09:05:55;94190.94;;;31.12;58.73
11077;BME280;5591;42.626;23.380;2023-08-17T09:08:26;94240.75;;;31.71;55.72
11077;BME280;5591;42.626;23.380;2023-08-17T09:10:53;94250.97;;;31.83;56.48
11077;BME280;5591;42.626;23.380;2023-08-17T09:13:20;94243.81;;;31.87;56.69
11077;BME280;5591;42.626;23.380;2023-08-17T09:15:47;94236.78;;;31.86;55.04
11077;BME280;5591;42.626;23.380;2023-08-17T09:18:15;94236.63;;;32.08;53.85
11077;BME280;5591;42.626;23.380;2023-08-17T09:20:44;94229.59;;;32.24;53.06
11077;BME280;5591;42.626;23.380;2023-08-17T09:23:13;94232.72;;;31.58;55.49
11077;BME280;5591;42.626;23.380;2023-08-17T09:25:41;94233.25;;;31.85;53.88
11077;BME280;5591;42.626;23.380;2023-08-17T09:28:09;94205.13;;;32.15;53.57
11077;BME280;5591;42.626;23.380;2023-08-17T09:30:50;94222.00;;;32.55;52.87
11077;BME280;5591;42.626;23.380;2023-08-17T09:33:18;94224.97;;;32.79;52.80
11077;BME280;5591;42.626;23.380;2023-08-17T09:35:45;94223.19;;;32.91;49.36
11077;BME280;5591;42.626;23.380;2023-08-17T09:38:13;94212.84;;;33.14;47.15
11077;BME280;5591;42.626;23.380;2023-08-17T09:40:40;94212.00;;;32.84;46.56
11077;BME280;5591;42.626;23.380;2023-08-17T09:43:08;94216.69;;;33.13;44.07
11077;BME280;5591;42.626;23.380;2023-08-17T09:45:35;94185.72;;;32.97;44.80
11077;BME280;5591;42.626;23.380;2023-08-17T09:48:04;94137.25;;;32.90;43.64
11077;BME280;5591;42.626;23.380;2023-08-17T09:50:31;94212.59;;;33.36;42.01
11077;BME280;5591;42.626;23.380;2023-08-17T09:52:58;94210.72;;;33.28;42.30
11077;BME280;5591;42.626;23.380;2023-08-17T09:55:26;94209.16;;;33.10;43.19
11077;BME280;5591;42.626;23.380;2023-08-17T09:57:53;94196.44;;;33.31;42.20
11077;BME280;5591;42.626;23.380;2023-08-17T10:00:21;94207.88;;;33.16;42.81
11077;BME280;5591;42.626;23.380;2023-08-17T10:02:50;94176.63;;;32.84;42.83
11077;BME280;5591;42.626;23.380;2023-08-17T10:05:18;94216.63;;;32.92;42.64
11077;BME280;5591;42.626;23.380;2023-08-17T10:07:46;94207.41;;;33.43;41.52
11077;BME280;5591;42.626;23.380;2023-08-17T10:10:16;94156.72;;;33.30;40.07
11077;BME280;5591;42.626;23.380;2023-08-17T10:12:49;94185.97;;;33.41;41.93
11077;BME280;5591;42.626;23.380;2023-08-17T10:15:23;94196.53;;;33.05;43.72
11077;BME280;5591;42.626;23.380;2023-08-17T10:17:57;94188.44;;;32.97;42.90
11077;BME280;5591;42.626;23.380;2023-08-17T10:20:26;94187.63;;;33.34;42.87
11077;BME280;5591;42.626;23.380;2023-08-17T10:23:00;94192.31;;;33.16;42.20
11077;BME280;5591;42.626;23.380;2023-08-17T10:25:29;94189.03;;;33.60;41.95
11077;BME280;5591;42.626;23.380;2023-08-17T10:27:57;94190.59;;;33.41;41.68
11077;BME280;5591;42.626;23.380;2023-08-17T10:30:25;94188.63;;;33.29;41.33
11077;BME280;5591;42.626;23.380;2023-08-17T10:32:53;94194.53;;;33.52;40.18
11077;BME280;5591;42.626;23.380;2023-08-17T10:35:20;94191.78;;;33.60;39.77
11077;BME280;5591;42.626;23.380;2023-08-17T10:37:48;94184.19;;;33.66;40.21
11077;BME280;5591;42.626;23.380;2023-08-17T10:40:15;94185.97;;;33.62;40.04
11077;BME280;5591;42.626;23.380;2023-08-17T10:42:42;94189.31;;;34.08;39.34
11077;BME280;5591;42.626;23.380;2023-08-17T10:45:28;94189.16;;;33.72;39.14
11077;BME280;5591;42.626;23.380;2023-08-17T10:48:26;94169.66;;;33.82;38.04
11077;BME280;5591;42.626;23.380;2023-08-17T10:51:01;94186.19;;;33.57;37.56
11077;BME280;5591;42.626;23.380;2023-08-17T10:53:34;94188.41;;;33.34;38.25
11077;BME280;5591;42.626;23.380;2023-08-17T10:56:01;94178.63;;;33.62;39.15
11077;BME280;5591;42.626;23.380;2023-08-17T10:58:32;94169.84;;;33.98;38.22
11077;BME280;5591;42.626;23.380;2023-08-17T11:01:00;94184.53;;;34.05;37.84
11077;BME280;5591;42.626;23.380;2023-08-17T11:03:27;94171.63;;;33.94;37.60
11077;BME280;5591;42.626;23.380;2023-08-17T11:05:55;94162.09;;;34.53;37.80
11077;BME280;5591;42.626;23.380;2023-08-17T11:08:23;94154.09;;;33.83;38.33
11077;BME280;5591;42.626;23.380;2023-08-17T11:10:58;94180.53;;;34.23;37.93
11077;BME280;5591;42.626;23.380;2023-08-17T11:13:27;94153.59;;;34.66;36.84
11077;BME280;5591;42.626;23.380;2023-08-17T11:15:55;94156.16;;;35.19;35.68
11077;BME280;5591;42.626;23.380;2023-08-17T11:18:23;94147.94;;;34.71;37.28
11077;BME280;5591;42.626;23.380;2023-08-17T11:20:50;94151.91;;;35.09;37.19
11077;BME280;5591;42.626;23.380;2023-08-17T11:23:17;94149.31;;;34.89;37.41
11077;BME280;5591;42.626;23.380;2023-08-17T11:25:44;94150.00;;;35.34;36.38
11077;BME280;5591;42.626;23.380;2023-08-17T11:28:13;94155.94;;;35.75;35.30
11077;BME280;5591;42.626;23.380;2023-08-17T11:30:40;94078.22;;;35.73;34.80
11077;BME280;5591;42.626;23.380;2023-08-17T11:33:08;94127.63;;;36.66;33.59
11077;BME280;5591;42.626;23.380;2023-08-17T11:35:37;94144.78;;;37.09;33.35
11077;BME280;5591;42.626;23.380;2023-08-17T11:38:04;94137.19;;;37.53;33.19
11077;BME280;5591;42.626;23.380;2023-08-17T11:40:32;94143.72;;;38.58;31.80
11077;BME280;5591;42.626;23.380;2023-08-17T11:43:00;94132.34;;;39.24;30.51
11077;BME280;5591;42.626;23.380;2023-08-17T11:45:27;94129.69;;;39.08;30.54
11077;BME280;5591;42.626;23.380;2023-08-17T11:47:54;94119.00;;;38.36;32.17
11077;BME280;5591;42.626;23.380;2023-08-17T11:50:20;94120.34;;;39.13;31.62
11077;BME280;5591;42.626;23.380;2023-08-17T11:52:49;94128.00;;;40.73;31.17
11077;BME280;5591;42.626;23.380;2023-08-17T11:55:16;94066.81;;;40.51;30.47
11077;BME280;5591;42.626;23.380;2023-08-17T11:57:45;94129.94;;;40.69;29.80
11077;BME280;5591;42.626;23.380;2023-08-17T12:00:18;94125.59;;;40.32;30.61
11077;BME280;5591;42.626;23.380;2023-08-17T12:02:49;94126.75;;;41.07;30.08
11077;BME280;5591;42.626;23.380;2023-08-17T12:05:19;94130.59;;;42.04;29.04
11077;BME280;5591;42.626;23.380;2023-08-17T12:07:50;94110.38;;;42.89;28.17
11077;BME280;5591;42.626;23.380;2023-08-17T12:10:17;94122.97;;;42.86;27.85
11077;BME280;5591;42.626;23.380;2023-08-17T12:12:45;94112.25;;;42.50;28.95
11077;BME280;5591;42.626;23.380;2023-08-17T12:15:13;94123.66;;;42.41;29.27
11077;BME280;5591;42.626;23.380;2023-08-17T12:17:45;94116.84;;;42.14;29.04
11077;BME280;5591;42.626;23.380;2023-08-17T12:20:15;94118.63;;;42.71;28.99
11077;BME280;5591;42.626;23.380;2023-08-17T12:22:42;94108.78;;;42.98;28.25
11077;BME280;5591;42.626;23.380;2023-08-17T12:25:11;94119.13;;;40.51;30.51
11077;BME280;5591;42.626;23.380;2023-08-17T12:27:38;94121.41;;;40.45;31.17
11077;BME280;5591;42.626;23.380;2023-08-17T12:30:11;94111.41;;;39.42;32.04
11077;BME280;5591;42.626;23.380;2023-08-17T12:32:39;94131.41;;;38.11;34.25
11077;BME280;5591;42.626;23.380;2023-08-17T12:35:06;94117.78;;;37.42;35.01
11077;BME280;5591;42.626;23.380;2023-08-17T12:37:33;94119.34;;;37.58;35.20
11077;BME280;5591;42.626;23.380;2023-08-17T12:40:00;94117.59;;;39.13;33.72
11077;BME280;5591;42.626;23.380;2023-08-17T12:42:28;94112.56;;;41.56;30.43
11077;BME280;5591;42.626;23.380;2023-08-17T12:44:55;94117.31;;;42.41;29.23
11077;BME280;5591;42.626;23.380;2023-08-17T12:47:22;94117.03;;;41.78;29.94
11077;BME280;5591;42.626;23.380;2023-08-17T12:49:49;94095.41;;;39.77;32.03
11077;BME280;5591;42.626;23.380;2023-08-17T12:52:16;94116.75;;;39.87;32.71
11077;BME280;5591;42.626;23.380;2023-08-17T12:54:43;94118.22;;;41.23;31.45
11077;BME280;5591;42.626;23.380;2023-08-17T12:57:09;94082.22;;;40.22;32.45
11077;BME280;5591;42.626;23.380;2023-08-17T12:59:37;94112.53;;;42.17;30.77
11077;BME280;5591;42.626;23.380;2023-08-17T13:02:04;94115.66;;;42.12;30.08